createdAt,value
2022-11-21T00:01:20.815Z,102830.88
2022-11-21T00:03:49.153Z,102828.28
2022-11-21T00:06:17.937Z,102829.13
2022-11-21T00:08:46.491Z,102822.19
2022-11-21T00:11:14.966Z,102811.78
2022-11-21T00:13:43.834Z,102809.16
2022-11-21T00:16:15.176Z,102810.88
2022-11-21T00:18:45.565Z,102810.00
2022-11-21T00:21:15.821Z,102806.56
2022-11-21T00:23:43.861Z,102810.91
2022-11-21T00:26:13.464Z,102800.50
2022-11-21T00:28:41.755Z,102809.19
2022-11-21T00:31:09.818Z,102799.63
2022-11-21T00:33:39.220Z,102801.38
2022-11-21T00:36:10.240Z,102798.78
2022-11-21T00:38:39.054Z,102787.50
2022-11-21T00:41:07.423Z,102784.03
2022-11-21T00:43:35.958Z,102784.03
2022-11-21T00:46:04.452Z,102776.22
2022-11-21T00:48:33.479Z,102773.63
2022-11-21T00:51:01.973Z,102762.34
2022-11-21T00:53:31.737Z,102755.44
2022-11-21T00:56:00.340Z,102745.88
2022-11-21T00:58:28.722Z,102738.97
2022-11-21T01:01:04.307Z,102732.03
2022-11-21T01:03:34.052Z,102729.41
2022-11-21T01:06:03.909Z,102722.47
2022-11-21T01:08:33.432Z,102717.31
2022-11-21T01:11:05.112Z,102712.97
2022-11-21T01:13:33.941Z,102698.22
2022-11-21T01:16:05.593Z,102688.69
2022-11-21T01:18:33.682Z,102671.34
2022-11-21T01:21:02.411Z,102660.94
2022-11-21T01:23:30.545Z,102644.50
2022-11-21T01:26:04.126Z,102635.78
2022-11-21T01:28:32.837Z,102634.09
2022-11-21T01:31:07.653Z,102629.75
2022-11-21T01:33:36.346Z,102626.34
2022-11-21T01:36:09.637Z,102620.31
2022-11-21T01:38:37.749Z,102607.34
2022-11-21T01:41:07.191Z,102603.91
2022-11-21T01:43:35.842Z,102616.94
2022-11-21T01:46:10.425Z,102597.94
2022-11-21T01:48:42.237Z,102576.31
2022-11-21T01:51:16.919Z,102577.22
2022-11-21T01:53:48.231Z,102560.75
2022-11-21T01:56:17.732Z,102557.31
2022-11-21T01:58:47.850Z,102558.19
2022-11-21T02:01:16.306Z,102557.34
2022-11-21T02:03:47.736Z,102563.44
2022-11-21T02:06:15.992Z,102572.97
2022-11-21T02:08:46.914Z,102574.72
2022-11-21T02:11:22.516Z,102555.69
2022-11-21T02:13:50.615Z,102542.75
2022-11-21T02:16:18.613Z,102535.81
2022-11-21T02:18:46.719Z,102524.53
2022-11-21T02:21:23.707Z,102507.22
2022-11-21T02:24:00.654Z,102489.88
2022-11-21T02:26:31.305Z,102467.38
2022-11-21T02:29:00.312Z,102445.72
2022-11-21T02:31:28.295Z,102443.16
2022-11-21T02:33:56.577Z,102442.31
2022-11-21T02:36:42.764Z,102447.50
2022-11-21T02:39:15.804Z,102431.94
2022-11-21T02:41:52.772Z,102421.50
2022-11-21T02:44:26.304Z,102421.47
2022-11-21T02:46:54.638Z,102407.50
2022-11-21T02:49:31.657Z,102407.47
2022-11-21T02:51:59.681Z,102392.66
2022-11-21T02:54:27.976Z,102385.66
2022-11-21T02:56:57.930Z,102360.50
2022-11-21T02:59:26.224Z,102353.50
2022-11-21T03:01:54.543Z,102352.59
2022-11-21T03:04:22.790Z,102336.94
2022-11-21T03:06:50.790Z,102328.22
2022-11-21T03:09:18.824Z,102312.63
2022-11-21T03:11:47.011Z,102296.97
2022-11-21T03:14:16.409Z,102277.03
2022-11-21T03:16:44.672Z,102261.47
2022-11-21T03:19:12.990Z,102250.22
2022-11-21T03:21:40.974Z,102242.44
2022-11-21T03:24:09.549Z,102226.91
2022-11-21T03:26:37.582Z,102208.75
2022-11-21T03:29:05.612Z,102187.94
2022-11-21T03:31:35.041Z,102178.47
2022-11-21T03:34:03.090Z,102164.63
2022-11-21T03:36:31.120Z,102156.81
2022-11-21T03:38:59.842Z,102140.38
2022-11-21T03:41:31.488Z,102129.06
2022-11-21T03:44:00.635Z,102131.66
2022-11-21T03:46:29.207Z,102122.09
2022-11-21T03:48:59.238Z,102118.59
2022-11-21T03:51:28.262Z,102095.22
2022-11-21T03:53:56.290Z,102093.47
2022-11-21T03:56:24.430Z,102074.41
2022-11-21T03:58:52.816Z,102064.00
2022-11-21T04:01:21.426Z,102059.59
2022-11-21T04:03:49.802Z,102045.69
2022-11-21T04:06:21.206Z,102035.22
2022-11-21T04:08:50.319Z,102020.38
2022-11-21T04:11:19.122Z,102003.88
2022-11-21T04:13:47.107Z,101991.66
2022-11-21T04:16:15.076Z,101970.78
2022-11-21T04:18:43.365Z,101964.66
2022-11-21T04:21:11.631Z,101967.22
2022-11-21T04:23:41.158Z,101958.47
2022-11-21T04:26:09.410Z,101951.44
2022-11-21T04:28:37.404Z,101940.91
2022-11-21T04:31:10.297Z,101920.91
2022-11-21T04:33:39.500Z,101909.63
2022-11-21T04:36:08.107Z,101896.63
2022-11-21T04:38:36.386Z,101893.16
2022-11-21T04:41:05.901Z,101884.53
2022-11-21T04:43:33.981Z,101875.84
2022-11-21T04:46:02.029Z,101866.31
2022-11-21T04:48:30.116Z,101857.66
2022-11-21T04:50:58.122Z,101847.25
2022-11-21T04:53:26.120Z,101835.09
2022-11-21T04:55:54.175Z,101831.56
2022-11-21T04:58:23.622Z,101824.63
2022-11-21T05:00:51.642Z,101809.88
2022-11-21T05:03:19.652Z,101785.59
2022-11-21T05:05:47.815Z,101795.97
2022-11-21T05:08:15.986Z,101798.53
2022-11-21T05:11:02.540Z,101785.53
2022-11-21T05:13:31.924Z,101775.91
2022-11-21T05:15:59.988Z,101769.84
2022-11-21T05:18:27.999Z,101752.47
2022-11-21T05:20:56.002Z,101748.09
2022-11-21T05:23:24.063Z,101739.41
2022-11-21T05:25:52.067Z,101722.91
2022-11-21T05:28:23.063Z,101709.84
2022-11-21T05:30:52.463Z,101695.09
2022-11-21T05:33:20.580Z,101674.22
2022-11-21T05:35:48.762Z,101649.06
2022-11-21T05:38:16.748Z,101614.34
2022-11-21T05:40:44.804Z,101602.13
2022-11-21T05:43:30.673Z,101585.63
2022-11-21T05:46:00.065Z,101580.34
2022-11-21T05:48:28.130Z,101578.63
2022-11-21T05:50:56.251Z,101569.94
2022-11-21T05:53:24.284Z,101560.38
2022-11-21T05:55:52.225Z,101550.84
2022-11-21T05:58:20.216Z,101540.44
2022-11-21T06:00:48.506Z,101529.16
2022-11-21T06:03:30.641Z,101520.47
2022-11-21T06:06:05.836Z,101504.00
2022-11-21T06:08:35.614Z,101483.19
2022-11-21T06:11:04.442Z,101454.56
2022-11-21T06:13:33.869Z,101456.31
2022-11-21T06:16:03.549Z,101440.69
2022-11-21T06:18:35.002Z,101433.78
2022-11-21T06:21:03.952Z,101419.91
2022-11-21T06:23:32.464Z,101400.88
2022-11-21T06:26:01.845Z,101396.50
2022-11-21T06:28:33.743Z,101388.66
2022-11-21T06:31:04.693Z,101362.63
2022-11-21T06:33:34.743Z,101344.41
2022-11-21T06:36:04.055Z,101321.88
2022-11-21T06:38:32.361Z,101308.88
2022-11-21T06:41:00.391Z,101276.78
2022-11-21T06:43:28.801Z,101252.59
2022-11-21T06:45:58.859Z,101219.69
2022-11-21T06:48:26.862Z,101191.97
2022-11-21T06:50:56.279Z,101164.25
2022-11-21T06:53:24.302Z,101140.00
2022-11-21T06:55:52.345Z,101108.78
2022-11-21T06:58:20.323Z,101081.06
2022-11-21T07:00:49.698Z,101056.88
2022-11-21T07:03:18.478Z,101023.97
2022-11-21T07:05:46.507Z,100995.41
2022-11-21T07:08:15.971Z,100970.31
2022-11-21T07:11:03.403Z,100965.97
2022-11-21T07:13:32.646Z,100931.34
2022-11-21T07:16:04.422Z,100913.22
2022-11-21T07:18:32.539Z,100888.06
2022-11-21T07:21:01.270Z,100867.25
2022-11-21T07:23:31.499Z,100838.75
2022-11-21T07:26:01.814Z,100808.44
2022-11-21T07:28:30.780Z,100782.44
2022-11-21T07:30:59.589Z,100754.75
2022-11-21T07:33:28.702Z,100735.75
2022-11-21T07:35:58.049Z,100721.09
2022-11-21T07:38:26.699Z,100697.81
2022-11-21T07:40:58.199Z,100683.13
2022-11-21T07:43:26.709Z,100658.88
2022-11-21T07:45:54.783Z,100642.44
2022-11-21T07:48:22.792Z,100619.03
2022-11-21T07:50:50.860Z,100588.75
2022-11-21T07:53:19.160Z,100567.84
2022-11-21T07:55:48.055Z,100536.66
2022-11-21T07:58:19.241Z,100508.91
2022-11-21T08:00:47.563Z,100500.19
2022-11-21T08:03:15.721Z,100481.09
2022-11-21T08:05:45.407Z,100449.88
2022-11-21T08:08:14.710Z,100434.09
2022-11-21T08:10:44.370Z,100403.84
2022-11-21T08:13:12.901Z,100393.44
2022-11-21T08:15:43.175Z,100363.13
2022-11-21T08:18:12.834Z,100344.94
2022-11-21T08:20:40.957Z,100311.13
2022-11-21T08:23:10.326Z,100295.53
2022-11-21T08:25:38.992Z,100273.88
2022-11-21T08:28:07.941Z,100267.88
2022-11-21T08:30:36.592Z,100234.06
2022-11-21T08:33:07.620Z,100207.28
2022-11-21T08:35:37.672Z,100205.53
2022-11-21T08:38:06.344Z,100177.78
2022-11-21T08:40:35.516Z,100175.06
2022-11-21T08:43:05.262Z,100160.31
2022-11-21T08:45:34.064Z,100151.44
2022-11-21T08:48:02.292Z,100121.91
2022-11-21T08:50:32.117Z,100123.44
2022-11-21T08:53:03.867Z,100117.22
2022-11-21T08:55:32.172Z,100096.25
2022-11-21T08:58:00.253Z,100089.88
2022-11-21T09:00:28.480Z,100056.63
2022-11-21T09:02:56.524Z,100032.09
2022-11-21T09:05:24.699Z,99992.00
2022-11-21T09:07:59.258Z,99971.00
2022-11-21T09:10:29.165Z,99940.44
2022-11-21T09:12:59.354Z,99926.41
2022-11-21T09:15:45.034Z,99914.03
2022-11-21T09:18:13.276Z,99882.63
2022-11-21T09:20:43.445Z,99872.03
2022-11-21T09:23:15.465Z,99844.91
2022-11-21T09:25:43.887Z,99841.28
2022-11-21T09:28:13.628Z,99805.59
2022-11-21T09:30:42.554Z,99792.38
2022-11-21T09:33:13.212Z,99775.75
2022-11-21T09:35:41.319Z,99740.03
2022-11-21T09:38:09.511Z,99726.09
2022-11-21T09:40:43.202Z,99717.44
2022-11-21T09:43:38.374Z,99701.72
2022-11-21T09:46:12.321Z,99689.56
2022-11-21T09:48:49.905Z,99673.00
2022-11-21T09:51:21.464Z,99663.44
2022-11-21T09:53:58.212Z,99632.97
2022-11-21T09:56:30.279Z,99600.69
2022-11-21T09:59:13.547Z,99598.81
2022-11-21T10:01:41.596Z,99662.97
2022-11-21T10:04:09.780Z,99740.94
2022-11-21T10:06:44.832Z,99693.34
2022-11-21T10:09:23.741Z,99671.69
2022-11-21T10:12:21.500Z,99717.53
2022-11-21T10:15:00.227Z,99781.09
2022-11-21T10:17:39.212Z,99796.69
2022-11-21T10:20:27.608Z,99775.50
2022-11-21T10:23:11.431Z,99751.56
2022-11-21T10:25:40.487Z,99703.69
2022-11-21T10:28:17.915Z,99667.47
2022-11-21T10:30:47.981Z,99633.75
2022-11-21T10:33:23.160Z,99597.56
2022-11-21T10:35:55.096Z,99595.78
2022-11-21T10:38:25.431Z,99578.25
2022-11-21T10:41:02.250Z,99566.50
2022-11-21T10:43:54.482Z,99569.56
2022-11-21T10:46:22.528Z,99579.38
2022-11-21T10:48:57.027Z,99543.41
2022-11-21T10:51:36.981Z,99521.88
2022-11-21T10:54:24.968Z,99516.94
2022-11-21T10:56:55.319Z,99510.47
2022-11-21T10:59:30.765Z,99507.78
2022-11-21T11:02:01.185Z,99509.00
2022-11-21T11:04:37.565Z,99514.41
2022-11-21T11:07:23.404Z,99495.16
2022-11-21T11:09:52.592Z,99517.78
2022-11-21T11:12:44.949Z,99564.78
2022-11-21T11:15:21.020Z,99584.09
2022-11-21T11:17:54.509Z,99582.44
2022-11-21T11:20:46.367Z,99629.22
2022-11-21T11:23:32.037Z,99659.31
2022-11-21T11:26:01.552Z,99654.00
2022-11-21T11:28:38.201Z,99723.63
2022-11-21T11:31:09.302Z,99707.56
2022-11-21T11:33:38.558Z,99772.09
2022-11-21T11:36:14.234Z,99808.78
2022-11-21T11:38:47.217Z,99850.97
2022-11-21T11:42:02.273Z,99871.59
2022-11-21T11:45:01.821Z,99974.34
2022-11-21T11:47:39.382Z,100021.56
2022-11-21T11:50:15.642Z,100092.22
2022-11-21T11:52:58.223Z,100146.53
2022-11-21T11:55:35.197Z,100223.50
2022-11-21T11:58:07.959Z,100239.22
2022-11-21T12:00:43.733Z,100291.28
2022-11-21T12:03:20.548Z,100353.50
2022-11-21T12:06:02.526Z,100420.25
2022-11-21T12:08:43.163Z,100426.81
2022-11-21T12:11:35.550Z,100467.91
2022-11-21T12:14:12.225Z,100431.72
2022-11-21T12:16:42.555Z,100381.97
2022-11-21T12:19:16.771Z,100306.31
2022-11-21T12:21:46.087Z,100205.53
2022-11-21T12:24:14.210Z,100025.00
2022-11-21T12:26:57.360Z,99838.22
2022-11-21T12:29:45.119Z,99727.75
2022-11-21T12:32:28.183Z,99653.72
2022-11-21T12:35:18.201Z,99574.91
2022-11-21T12:37:54.376Z,99511.53
2022-11-21T12:40:39.176Z,99456.56
2022-11-21T12:43:21.610Z,99432.63
2022-11-21T12:45:53.696Z,99431.78
2022-11-21T12:48:50.197Z,99411.28
2022-11-21T12:51:55.795Z,99382.34
2022-11-21T12:54:45.507Z,99374.94
2022-11-21T12:57:15.234Z,99370.25
2022-11-21T13:00:03.288Z,99392.28
2022-11-21T13:02:48.221Z,99429.72
2022-11-21T13:05:22.458Z,99375.75
2022-11-21T13:08:04.204Z,99370.63
2022-11-21T13:10:33.385Z,99323.53
2022-11-21T13:13:11.111Z,99326.13
2022-11-21T13:15:50.280Z,99301.38
2022-11-21T13:18:22.688Z,99271.31
2022-11-21T13:20:52.209Z,99289.75
2022-11-21T13:23:39.789Z,99285.59
2022-11-21T13:26:49.756Z,99279.56
2022-11-21T13:29:17.910Z,99291.94
2022-11-21T13:31:45.943Z,99295.28
2022-11-21T13:34:37.510Z,99308.97
2022-11-21T13:37:06.406Z,99332.88
2022-11-21T13:39:39.902Z,99318.94
2022-11-21T13:42:32.752Z,99289.00
2022-11-21T13:45:16.329Z,99271.38
2022-11-21T13:48:04.841Z,99282.72
2022-11-21T13:50:57.385Z,99287.19
2022-11-21T13:53:43.264Z,99246.53
2022-11-21T13:56:27.595Z,99252.78
2022-11-21T13:59:08.360Z,99265.09
2022-11-21T14:02:07.709Z,99247.81
2022-11-21T14:04:55.033Z,99226.13
2022-11-21T14:07:25.815Z,99206.53
2022-11-21T14:09:56.954Z,99211.88
2022-11-21T14:12:34.383Z,99215.91
2022-11-21T14:15:28.061Z,99205.38
2022-11-21T14:17:58.631Z,99197.69
2022-11-21T14:20:29.341Z,99196.84
2022-11-21T14:23:03.423Z,99186.28
2022-11-21T14:25:38.162Z,99188.97
2022-11-21T14:28:13.044Z,99167.03
2022-11-21T14:30:42.941Z,99173.66
2022-11-21T14:33:25.075Z,99175.03
2022-11-21T14:35:55.558Z,99188.41
2022-11-21T14:38:24.465Z,99179.66
2022-11-21T14:41:12.392Z,99198.59
2022-11-21T14:43:41.898Z,99192.53
2022-11-21T14:46:15.617Z,99222.13
2022-11-21T14:48:43.918Z,99239.59
2022-11-21T14:51:16.123Z,99230.38
2022-11-21T14:53:47.245Z,99227.97
2022-11-21T14:56:22.638Z,99227.13
2022-11-21T14:58:53.223Z,99227.34
2022-11-21T15:01:23.216Z,99243.78
2022-11-21T15:03:58.733Z,99258.16
2022-11-21T15:06:27.228Z,99270.63
2022-11-21T15:10:19.317Z,99276.53
2022-11-21T15:11:50.835Z,99295.94
2022-11-21T15:14:25.856Z,99313.13
2022-11-21T15:16:56.237Z,99316.25
2022-11-21T15:19:26.900Z,99334.06
2022-11-21T15:21:57.620Z,99359.59
2022-11-21T15:24:32.406Z,99381.44
2022-11-21T15:27:01.095Z,99359.16
2022-11-21T15:29:32.002Z,99347.09
2022-11-21T15:32:15.810Z,99318.78
2022-11-21T15:34:44.892Z,99316.53
2022-11-21T15:37:16.483Z,99297.69
2022-11-21T15:39:45.856Z,99276.25
2022-11-21T15:42:35.828Z,99259.94
2022-11-21T15:45:22.933Z,99242.06
2022-11-21T15:47:51.330Z,99240.41
2022-11-21T15:50:19.397Z,99268.66
2022-11-21T15:52:48.842Z,99309.25
2022-11-21T15:55:20.472Z,99368.53
2022-11-21T15:57:48.709Z,99404.88
2022-11-21T16:00:18.958Z,99441.47
2022-11-21T16:02:47.435Z,99484.25
2022-11-21T16:05:17.292Z,99524.59
2022-11-21T16:07:48.543Z,99588.31
2022-11-21T16:10:24.368Z,99662.34
2022-11-21T16:12:55.812Z,99747.28
2022-11-21T16:15:25.864Z,99799.47
2022-11-21T16:17:54.272Z,99826.81
2022-11-21T16:20:22.570Z,99830.66
2022-11-21T16:22:50.567Z,99848.59
2022-11-21T16:25:18.687Z,99855.25
2022-11-21T16:27:47.211Z,99827.66
2022-11-21T16:30:16.021Z,99815.56
2022-11-21T16:32:45.470Z,99791.38
2022-11-21T16:35:13.471Z,99775.72
2022-11-21T16:37:41.511Z,99789.34
2022-11-21T16:40:11.413Z,99778.59
2022-11-21T16:42:39.570Z,99782.41
2022-11-21T16:45:08.146Z,99811.50
2022-11-21T16:47:37.555Z,99852.66
2022-11-21T16:50:07.733Z,99899.19
2022-11-21T16:52:36.697Z,99927.84
2022-11-21T16:55:05.559Z,99994.75
2022-11-21T16:57:36.861Z,100045.16
2022-11-21T17:00:06.070Z,100097.34
2022-11-21T17:02:34.165Z,100114.22
2022-11-21T17:05:02.183Z,100112.63
2022-11-21T17:07:32.216Z,100110.63
2022-11-21T17:10:00.155Z,100081.31
2022-11-21T17:12:28.361Z,100053.91
2022-11-21T17:14:56.364Z,100000.72
2022-11-21T17:17:24.363Z,99968.31
2022-11-21T17:19:54.583Z,99959.25
2022-11-21T17:22:24.757Z,99948.56
2022-11-21T17:24:54.950Z,99923.50
2022-11-21T17:27:23.662Z,99876.78
2022-11-21T17:29:51.724Z,99850.22
2022-11-21T17:32:19.927Z,99834.81
2022-11-21T17:34:47.893Z,99807.28
2022-11-21T17:37:15.943Z,99796.09
2022-11-21T17:39:43.943Z,99793.50
2022-11-21T17:42:14.552Z,99796.66
2022-11-21T17:44:42.525Z,99800.69
2022-11-21T17:47:11.540Z,99837.31
2022-11-21T17:49:39.552Z,99856.75
2022-11-21T17:52:07.930Z,99863.09
2022-11-21T17:54:36.176Z,99876.59
2022-11-21T17:57:04.192Z,99858.22
2022-11-21T17:59:34.793Z,99817.94
2022-11-21T18:02:03.290Z,99768.63
2022-11-21T18:04:31.668Z,99730.41
2022-11-21T18:07:00.016Z,99715.91
2022-11-21T18:09:28.487Z,99717.59
2022-11-21T18:11:57.814Z,99749.22
2022-11-21T18:14:26.396Z,99759.94
2022-11-21T18:16:56.594Z,99763.56
2022-11-21T18:19:25.098Z,99799.81
2022-11-21T18:21:53.095Z,99855.41
2022-11-21T18:24:21.224Z,99908.59
2022-11-21T18:26:49.463Z,99945.06
2022-11-21T18:32:07.599Z,99979.47
2022-11-21T18:34:35.670Z,100001.06
2022-11-21T18:37:03.742Z,99978.09
2022-11-21T18:39:32.032Z,99938.88
2022-11-21T18:42:00.216Z,99903.25
2022-11-21T18:44:28.272Z,99890.88
2022-11-21T18:46:56.260Z,99874.06
2022-11-21T18:49:26.015Z,99878.06
2022-11-21T18:51:54.132Z,99860.44
2022-11-21T18:54:22.169Z,99856.56
2022-11-21T18:56:50.259Z,99848.34
2022-11-21T18:59:18.309Z,99856.59
2022-11-21T19:01:46.417Z,99845.22
2022-11-21T19:04:14.608Z,99864.69
2022-11-21T19:06:44.087Z,99913.19
2022-11-21T19:09:12.843Z,99936.13
2022-11-21T19:11:41.045Z,99951.22
2022-11-21T19:14:09.178Z,99926.63
2022-11-21T19:16:37.325Z,99902.00
2022-11-21T19:21:57.174Z,99816.47
2022-11-21T19:24:25.234Z,99791.72
2022-11-21T19:26:53.547Z,99785.28
2022-11-21T19:29:21.695Z,99778.97
2022-11-21T19:31:49.942Z,99782.13
2022-11-21T19:34:18.549Z,99755.06
2022-11-21T19:36:47.046Z,99721.84
2022-11-21T19:39:17.564Z,99694.84
2022-11-21T19:41:45.769Z,99678.53
2022-11-21T19:44:14.069Z,99658.59
2022-11-21T19:46:42.264Z,99635.09
2022-11-21T19:49:12.326Z,99621.09
2022-11-21T19:51:42.458Z,99612.44
2022-11-21T19:54:12.596Z,99606.44
2022-11-21T19:56:42.125Z,99595.22
2022-11-21T19:59:12.578Z,99605.50
2022-11-21T20:01:41.107Z,99602.06
2022-11-21T20:04:09.775Z,99605.50
2022-11-21T20:06:41.088Z,99595.88
2022-11-21T20:09:11.306Z,99597.50
2022-11-21T20:11:43.840Z,99595.66
2022-11-21T20:14:19.699Z,99576.53
2022-11-21T20:16:51.716Z,99561.59
2022-11-21T20:19:22.583Z,99541.84
2022-11-21T20:21:51.360Z,99569.88
2022-11-21T20:24:19.609Z,99588.31
2022-11-21T20:26:49.396Z,99622.41
2022-11-21T20:29:17.550Z,99643.34
2022-11-21T20:31:48.290Z,99663.47
2022-11-21T20:34:16.498Z,99686.47
2022-11-21T20:36:45.399Z,99729.75
2022-11-21T20:39:15.344Z,99788.38
2022-11-21T20:41:43.539Z,99848.53
2022-11-21T20:47:03.442Z,99983.75
2022-11-21T20:49:31.977Z,100023.81
2022-11-21T20:54:48.390Z,100152.19
2022-11-21T20:57:16.615Z,100186.00
2022-11-21T20:59:45.993Z,100224.97
2022-11-21T21:02:14.943Z,100252.56
2022-11-21T21:04:43.359Z,100274.22
2022-11-21T21:07:12.314Z,100292.28
2022-11-21T21:09:40.809Z,100332.63
2022-11-21T21:12:09.667Z,100345.97
2022-11-21T21:14:38.134Z,100345.44
2022-11-21T21:17:07.628Z,100330.25
2022-11-21T21:19:36.203Z,100290.91
2022-11-21T21:22:05.155Z,100258.47
2022-11-21T21:24:33.308Z,100221.66
2022-11-21T21:27:01.451Z,100181.41
2022-11-21T21:29:29.967Z,100154.97
2022-11-21T21:31:58.292Z,100109.53
2022-11-21T21:34:28.491Z,100045.28
2022-11-21T21:36:56.836Z,99949.13
2022-11-21T21:39:26.117Z,99872.00
2022-11-21T21:41:54.311Z,99767.84
2022-11-21T21:44:24.994Z,99713.88
2022-11-21T21:46:56.529Z,99692.09
2022-11-21T21:49:25.153Z,99684.13
2022-11-21T21:51:54.656Z,99681.25
2022-11-21T21:54:22.779Z,99675.16
2022-11-21T21:56:51.258Z,99691.75
2022-11-21T21:59:19.851Z,99711.03
2022-11-21T22:01:49.212Z,99737.25
2022-11-21T22:04:17.339Z,99765.97
2022-11-21T22:06:45.350Z,99777.03
2022-11-21T22:09:14.814Z,99787.41
2022-11-21T22:11:42.804Z,99794.31
2022-11-21T22:14:13.965Z,99802.66
2022-11-21T22:16:42.547Z,99808.44
2022-11-21T22:19:10.878Z,99803.13
2022-11-21T22:21:40.038Z,99791.09
2022-11-21T22:24:28.475Z,99758.25
2022-11-21T22:26:57.982Z,99714.94
2022-11-21T22:29:26.481Z,99696.75
2022-11-21T22:31:54.577Z,99668.19
2022-11-21T22:34:22.867Z,99655.22
2022-11-21T22:36:51.139Z,99656.91
2022-11-21T22:39:19.160Z,99670.63
2022-11-21T22:41:47.276Z,99696.41
2022-11-21T22:44:17.185Z,99743.28
2022-11-21T22:46:45.172Z,99769.78
2022-11-21T22:49:14.381Z,99832.84
2022-11-21T22:51:42.407Z,99913.38
2022-11-21T22:54:10.655Z,99991.53
2022-11-21T22:56:38.676Z,100056.47
2022-11-21T22:59:06.912Z,100116.16
2022-11-21T23:01:36.379Z,100178.22
2022-11-21T23:04:04.544Z,100234.28
2022-11-21T23:06:32.686Z,100279.06
2022-11-21T23:09:00.798Z,100330.72
2022-11-21T23:11:36.356Z,100371.09
2022-11-21T23:14:09.127Z,100421.19
2022-11-21T23:16:38.701Z,100459.94
2022-11-21T23:19:07.103Z,100528.78
2022-11-21T23:21:35.579Z,100589.03
2022-11-21T23:24:03.684Z,100632.94
2022-11-21T23:26:31.690Z,100661.25
2022-11-21T23:29:05.082Z,100668.75
2022-11-21T23:31:36.167Z,100700.25
2022-11-21T23:34:05.885Z,100722.38
2022-11-21T23:36:33.968Z,100715.09
2022-11-21T23:39:02.021Z,100736.59
2022-11-21T23:41:30.133Z,100741.81
2022-11-21T23:43:59.914Z,100745.16
2022-11-21T23:46:28.307Z,100760.56
2022-11-21T23:48:56.346Z,100776.09
2022-11-21T23:51:28.693Z,100773.72
2022-11-21T23:53:56.777Z,100776.69
2022-11-21T23:56:24.839Z,100779.59
2022-11-21T23:58:52.840Z,100780.66
